Time;durP1;ratioP1;P1;durP2;ratioP2;P2;SDS_P1;SDS_P2;PMS_P1;PMS_P2;Temp;Humidity;BMP_temperature;BMP_pressure;BME280_temperature;BME280_humidity;BME280_pressure;Samples;Min_cycle;Max_cycle;Signal;HPM_P1;HPM_P2
2022/08/19 00:02:08;;;;;;;7.10;6.20;;;;;;;24.90;53.58;101279.59;4967781;28;20066;-66
2022/08/19 00:04:36;;;;;;;7.40;6.20;;;;;;;24.92;53.42;101282.13;4962613;28;20559;-65
2022/08/19 00:07:02;;;;;;;6.70;6.00;;;;;;;24.90;53.37;101278.78;4962384;28;20538;-66
2022/08/19 00:09:29;;;;;;;7.15;5.60;;;;;;;24.91;53.67;101283.94;4962593;28;20019;-66
2022/08/19 00:11:56;;;;;;;6.60;5.90;;;;;;;24.90;53.75;101279.59;4973498;28;20421;-66
2022/08/19 00:14:23;;;;;;;7.07;6.07;;;;;;;24.86;53.63;101277.41;4962629;28;20039;-68
2022/08/19 00:16:51;;;;;;;6.72;5.85;;;;;;;24.89;53.61;101283.25;4966656;28;20042;-67
2022/08/19 00:19:16;;;;;;;6.78;6.10;;;;;;;24.87;53.29;101279.09;4962522;28;20042;-67
2022/08/19 00:21:43;;;;;;;6.72;6.05;;;;;;;24.83;53.57;101267.88;4970123;28;20046;-65
2022/08/19 00:24:09;;;;;;;7.00;6.25;;;;;;;24.86;53.56;101280.91;4973960;28;20051;-66
2022/08/19 00:26:36;;;;;;;6.43;5.72;;;;;;;24.84;53.41;101277.56;4962463;28;20117;-65
2022/08/19 00:29:01;;;;;;;7.85;6.40;;;;;;;24.80;53.65;101268.22;4966146;28;20056;-67
2022/08/19 00:31:27;;;;;;;6.75;6.05;;;;;;;24.80;53.30;101271.72;4976900;28;20570;-67
2022/08/19 00:33:53;;;;;;;7.95;6.35;;;;;;;24.81;53.38;101275.22;4976121;28;20035;-66
2022/08/19 00:36:18;;;;;;;7.07;6.38;;;;;;;24.81;53.37;101286.72;4980688;28;20356;-66
2022/08/19 00:38:44;;;;;;;7.15;6.45;;;;;;;24.82;53.24;101287.56;4981416;28;20064;-68
2022/08/19 00:41:14;;;;;;;7.05;6.35;;;;;;;24.81;53.57;101288.53;4984333;28;20041;-64
2022/08/19 00:43:40;;;;;;;7.93;6.05;;;;;;;24.79;53.52;101290.53;4977935;28;20027;-67
2022/08/19 00:46:05;;;;;;;7.47;6.28;;;;;;;24.77;53.28;101281.88;4970671;28;20252;-64
2022/08/19 00:48:33;;;;;;;6.70;6.00;;;;;;;24.80;53.33;101289.53;4983299;28;20041;-67
2022/08/19 00:50:59;;;;;;;7.25;6.55;;;;;;;24.79;53.39;101283.38;4985213;28;20509;-68
2022/08/19 00:53:28;;;;;;;7.07;5.90;;;;;;;24.78;53.14;101287.06;4984244;28;20030;-66
2022/08/19 00:55:57;;;;;;;7.57;6.22;;;;;;;24.74;52.80;101285.69;4965900;28;20383;-63
2022/08/19 00:58:27;;;;;;;6.15;5.53;;;;;;;24.74;52.96;101280.34;4972572;28;20038;-65
2022/08/19 01:00:53;;;;;;;6.25;5.60;;;;;;;24.75;53.10;101291.84;4985184;28;20042;-67
2022/08/19 01:03:20;;;;;;;6.32;5.63;;;;;;;24.73;52.84;101286.66;4985127;28;20497;-66
2022/08/19 01:05:48;;;;;;;7.03;6.15;;;;;;;24.70;52.86;101280.81;4973553;28;20031;-65
2022/08/19 01:08:15;;;;;;;6.95;6.18;;;;;;;24.68;52.88;101277.50;4977780;28;20061;-65
2022/08/19 01:10:45;;;;;;;6.45;5.55;;;;;;;24.73;52.99;101283.19;4968276;28;20058;-66
2022/08/19 01:13:11;;;;;;;6.45;5.55;;;;;;;24.73;52.70;101285.84;4977815;28;20022;-68
2022/08/19 01:15:46;;;;;;;6.22;5.63;;;;;;;24.71;52.85;101294.00;4984862;28;20053;-66
2022/08/19 01:18:14;;;;;;;7.50;6.10;;;;;;;24.65;52.84;101281.28;4985103;28;20061;-66
2022/08/19 01:20:42;;;;;;;6.72;5.80;;;;;;;24.69;52.69;101280.00;4985123;28;20027;-64
2022/08/19 01:23:07;;;;;;;8.45;6.15;;;;;;;24.55;52.62;101259.22;4983438;28;20858;-65
2022/08/19 01:25:43;;;;;;;6.20;5.43;;;;;;;24.63;52.54;101276.13;4965422;28;20125;-67
2022/08/19 01:28:17;;;;;;;6.60;5.53;;;;;;;24.67;53.07;101279.28;4969013;28;20026;-64
2022/08/19 01:30:43;;;;;;;6.50;5.45;;;;;;;24.66;52.68;101276.78;4980090;28;20560;-66
2022/08/19 01:33:08;;;;;;;6.55;5.53;;;;;;;24.61;52.52;101278.13;4968933;28;20087;-66
2022/08/19 01:35:35;;;;;;;7.70;6.10;;;;;;;24.66;52.59;101282.97;4965612;28;20101;-65
2022/08/19 01:38:07;;;;;;;6.90;6.00;;;;;;;24.65;52.58;101283.97;4965298;28;20031;-68
2022/08/19 01:40:35;;;;;;;7.80;6.35;;;;;;;24.63;52.99;101284.13;4972942;28;20035;-66
2022/08/19 01:43:01;;;;;;;7.45;5.82;;;;;;;24.63;52.60;101280.63;4980095;28;20030;-66
2022/08/19 01:45:29;;;;;;;6.43;5.55;;;;;;;24.63;52.67;101277.97;4966658;28;20033;-66
2022/08/19 01:47:56;;;;;;;7.00;5.65;;;;;;;24.63;52.60;101268.13;4972161;28;20077;-64
2022/08/19 01:50:21;;;;;;;7.45;5.63;;;;;;;24.60;52.78;101270.28;4964945;28;20031;-65
2022/08/19 01:52:47;;;;;;;7.60;5.82;;;;;;;24.59;53.07;101265.94;4980772;28;20061;-66
2022/08/19 01:55:15;;;;;;;6.82;5.85;;;;;;;24.62;52.82;101278.94;4978217;28;20034;-66
2022/08/19 01:57:44;;;;;;;6.22;5.63;;;;;;;24.62;52.55;101276.28;4976749;28;20779;-68
2022/08/19 02:00:15;;;;;;;7.28;6.28;;;;;;;24.61;52.68;101280.78;4964963;28;20034;-65
2022/08/19 02:02:40;;;;;;;8.65;6.35;;;;;;;24.56;52.98;101275.09;4965184;28;20037;-65
2022/08/19 02:05:07;;;;;;;7.00;6.15;;;;;;;24.61;52.91;101280.78;4964722;28;20023;-67
2022/08/19 02:07:33;;;;;;;7.90;5.65;;;;;;;24.57;52.84;101279.41;4968509;28;20468;-66
2022/08/19 02:10:04;;;;;;;7.22;6.05;;;;;;;24.59;52.46;101285.44;4980150;28;20034;-66
2022/08/19 02:12:29;;;;;;;6.93;6.05;;;;;;;24.59;52.91;101290.78;4982443;28;20034;-65
2022/08/19 02:14:54;;;;;;;6.87;5.93;;;;;;;24.58;52.46;101297.09;4984358;28;20038;-65
2022/08/19 02:17:20;;;;;;;7.83;6.17;;;;;;;24.54;52.70;101287.69;4982465;28;21382;-66
2022/08/19 02:19:45;;;;;;;7.03;5.80;;;;;;;24.44;52.78;101279.78;4972355;28;20272;-65
2022/08/19 02:22:11;;;;;;;8.27;6.50;;;;;;;24.57;52.76;101300.72;4964535;28;20050;-65
2022/08/19 02:24:36;;;;;;;7.38;6.25;;;;;;;24.57;52.58;101303.38;4965862;28;20050;-65
2022/08/19 02:27:01;;;;;;;7.88;6.63;;;;;;;24.53;52.32;101298.50;4977666;28;20046;-67
2022/08/19 02:29:27;;;;;;;7.20;6.45;;;;;;;24.52;52.71;101297.66;4964344;28;20463;-68
2022/08/19 02:31:52;;;;;;;7.30;6.30;;;;;;;24.45;52.57;101296.63;4980827;28;20414;-65
2022/08/19 02:34:17;;;;;;;7.60;6.68;;;;;;;24.52;52.53;101303.00;4968269;28;20073;-66
2022/08/19 02:36:43;;;;;;;8.53;6.50;;;;;;;24.51;52.21;101301.31;4967230;28;20034;-68
2022/08/19 02:39:09;;;;;;;7.78;6.20;;;;;;;24.51;52.29;101303.16;4977811;28;20335;-64
2022/08/19 02:41:34;;;;;;;7.90;5.70;;;;;;;24.50;52.16;101299.66;4964608;28;20033;-66
2022/08/19 02:44:03;;;;;;;8.10;5.93;;;;;;;24.49;52.13;101291.81;4963837;28;20375;-66
2022/08/19 02:46:31;;;;;;;7.68;6.05;;;;;;;24.53;51.99;101307.34;4968899;28;20484;-67
2022/08/19 02:49:02;;;;;;;6.80;6.03;;;;;;;24.53;52.24;101307.34;4963932;28;20031;-66
2022/08/19 02:51:34;;;;;;;7.22;6.20;;;;;;;24.50;52.07;101310.31;4968341;28;20648;-64
2022/08/19 02:54:01;;;;;;;7.05;5.75;;;;;;;24.52;52.21;101318.16;4968211;28;20039;-63
2022/08/19 02:56:27;;;;;;;7.68;6.57;;;;;;;24.48;51.83;101314.94;4982938;28;20038;-66
2022/08/19 02:58:53;;;;;;;7.43;6.05;;;;;;;24.47;51.92;101315.97;4983133;28;20042;-67
2022/08/19 03:01:21;;;;;;;7.20;6.15;;;;;;;24.46;52.18;101306.28;4982987;28;20122;-66
2022/08/19 03:03:46;;;;;;;7.65;6.18;;;;;;;24.49;52.14;101311.31;4964700;28;20045;-64
2022/08/19 03:06:15;;;;;;;8.43;6.50;;;;;;;24.44;52.46;101300.28;4972668;28;20042;-67
2022/08/19 03:08:43;;;;;;;6.45;5.60;;;;;;;24.44;51.99;101297.63;4982596;28;20027;-66
2022/08/19 03:11:14;;;;;;;8.18;6.00;;;;;;;24.44;52.38;101300.28;4979070;28;20122;-67
2022/08/19 03:13:40;;;;;;;8.23;6.60;;;;;;;24.42;52.08;101294.28;4962043;28;20042;-65
2022/08/19 03:16:05;;;;;;;9.38;6.20;;;;;;;24.47;52.15;101315.97;4963511;28;20368;-66
2022/08/19 03:18:31;;;;;;;6.85;6.15;;;;;;;24.47;52.23;101315.97;4963211;28;20038;-66
2022/08/19 03:20:56;;;;;;;6.97;6.28;;;;;;;24.43;51.83;101310.13;4974300;28;20030;-67
2022/08/19 03:23:22;;;;;;;8.40;6.78;;;;;;;24.43;51.84;101306.59;4978856;28;20447;-65
2022/08/19 03:25:50;;;;;;;8.32;6.60;;;;;;;24.44;51.73;101311.75;4982305;28;20500;-66
2022/08/19 03:28:16;;;;;;;8.95;6.63;;;;;;;24.42;52.03;101304.94;4969415;28;20387;-67
2022/08/19 03:30:43;;;;;;;7.35;6.28;;;;;;;24.44;51.76;101300.28;4973388;28;20045;-68
2022/08/19 03:33:10;;;;;;;8.65;7.00;;;;;;;24.40;52.10;101305.09;4982378;28;20444;-66
2022/08/19 03:35:38;;;;;;;7.57;6.35;;;;;;;24.42;52.19;101303.09;4982575;28;20034;-65
2022/08/19 03:38:05;;;;;;;7.45;6.60;;;;;;;24.40;51.71;101301.56;4977975;28;20057;-66
2022/08/19 03:40:31;;;;;;;8.23;6.75;;;;;;;24.40;52.22;101305.09;4966942;28;20037;-65
2022/08/19 03:42:57;;;;;;;7.30;6.40;;;;;;;24.39;51.64;101291.94;4974824;28;20041;-65
2022/08/19 03:45:23;;;;;;;7.97;6.60;;;;;;;24.39;51.69;101292.75;4962799;28;20452;-66
2022/08/19 03:47:48;;;;;;;8.02;7.00;;;;;;;24.39;52.04;101292.75;4976568;28;20302;-66
2022/08/19 03:50:14;;;;;;;8.00;6.97;;;;;;;24.40;52.08;101301.56;4964064;28;20406;-68
2022/08/19 03:52:39;;;;;;;9.40;7.40;;;;;;;24.38;51.57;101293.72;4963014;28;20121;-66
2022/08/19 03:55:05;;;;;;;9.55;6.72;;;;;;;24.38;51.67;101293.72;4964497;28;20041;-66
2022/08/19 03:57:30;;;;;;;8.90;7.05;;;;;;;24.35;51.84;101291.38;4982215;28;20034;-66
2022/08/19 03:59:56;;;;;;;7.70;6.67;;;;;;;24.37;51.97;101293.88;4969288;28;20534;-66
2022/08/19 04:02:21;;;;;;;8.10;6.38;;;;;;;24.38;51.92;101296.41;4963339;28;20376;-66
2022/08/19 04:04:47;;;;;;;8.77;6.70;;;;;;;24.35;51.76;101290.56;4962631;28;20419;-63
2022/08/19 04:07:21;;;;;;;8.23;7.15;;;;;;;24.34;51.54;101296.88;4962813;28;20085;-66
2022/08/19 04:09:46;;;;;;;;;;;;;;;24.36;51.41;101294.91;4972937;28;20681;-66
2022/08/19 04:12:11;;;;;;;7.70;6.90;;;;;;;24.32;51.68;101290.88;4981881;28;19932;-67
2022/08/19 04:14:36;;;;;;;8.68;6.75;;;;;;;24.35;51.42;101295.88;4976540;28;20062;-65
2022/08/19 04:17:06;;;;;;;7.97;7.15;;;;;;;24.34;51.95;101287.06;4962924;28;20213;-65
2022/08/19 04:19:34;;;;;;;8.77;6.88;;;;;;;24.35;51.61;101288.72;4963772;28;20105;-65
2022/08/19 04:21:59;;;;;;;10.02;7.28;;;;;;;24.35;51.49;101295.88;4974219;28;20039;-64
2022/08/19 04:24:24;;;;;;;10.65;7.53;;;;;;;24.31;51.83;101294.50;4972780;28;20054;-65
2022/08/19 04:26:50;;;;;;;9.48;7.50;;;;;;;24.30;51.38;101291.00;4975729;28;20046;-64
2022/08/19 04:29:24;;;;;;;8.30;7.28;;;;;;;24.31;51.78;101290.03;4964072;28;20062;-65
2022/08/19 04:31:50;;;;;;;;;;;;;;;24.31;51.45;101291.84;4964795;28;20077;-64
2022/08/19 04:34:19;;;;;;;8.68;6.82;;;;;;;24.30;51.63;101282.19;4974493;28;20414;-65
2022/08/19 04:36:45;;;;;;;8.50;7.43;;;;;;;24.19;51.66;101264.63;4981543;28;20109;-65
2022/08/19 04:39:16;;;;;;;9.73;8.40;;;;;;;24.32;51.57;101286.34;4978873;28;20145;-66
2022/08/19 04:44:30;;;;;;;9.35;8.30;;;;;;;24.26;51.48;101282.50;4980584;28;20073;-66
2022/08/19 04:46:55;;;;;;;8.45;7.32;;;;;;;24.28;51.44;101287.69;4962342;28;20372;-64
2022/08/19 04:49:22;;;;;;;10.85;8.48;;;;;;;24.25;51.48;101293.31;4975278;28;20045;-66
2022/08/19 04:51:48;;;;;;;9.35;7.60;;;;;;;24.30;51.74;101298.19;4980861;28;20133;-65
2022/08/19 04:54:15;;;;;;;9.55;7.75;;;;;;;24.29;51.72;101301.81;4981580;28;20034;-67
2022/08/19 04:56:40;;;;;;;9.63;7.60;;;;;;;24.29;51.46;101307.16;4981483;28;20030;-65
2022/08/19 04:59:08;;;;;;;9.90;8.90;;;;;;;24.28;51.53;101306.31;4972778;28;20034;-65
2022/08/19 05:01:34;;;;;;;9.50;7.93;;;;;;;24.24;51.53;101307.59;4977855;28;20080;-65
2022/08/19 05:04:01;;;;;;;9.35;8.07;;;;;;;24.21;51.77;101303.44;4981427;28;20038;-66
2022/08/19 05:06:27;;;;;;;9.52;8.20;;;;;;;24.24;51.36;101312.94;4971564;28;20042;-66
2022/08/19 05:08:52;;;;;;;10.02;8.73;;;;;;;24.22;51.35;101307.75;4981297;28;20026;-65
2022/08/19 05:11:21;;;;;;;9.43;8.43;;;;;;;24.22;51.77;101314.94;4978704;28;20515;-65
2022/08/19 05:13:48;;;;;;;10.23;8.35;;;;;;;24.21;51.74;101319.44;4963132;28;20034;-66
2022/08/19 05:16:17;;;;;;;10.02;7.97;;;;;;;24.23;51.79;101330.75;4976267;28;20026;-65
2022/08/19 05:24:12;;;;;;;11.15;9.95;;;;;;;24.24;51.61;101334.25;4981005;28;20402;-65
2022/08/19 05:26:39;;;;;;;10.07;9.07;;;;;;;24.24;51.54;101339.56;4982670;28;20117;-65
2022/08/19 05:29:07;;;;;;;11.43;9.15;;;;;;;24.23;51.31;101341.41;4984380;28;20030;-64
2022/08/19 05:31:32;;;;;;;13.82;10.35;;;;;;;24.20;51.39;101340.88;4983603;28;20038;-65
2022/08/19 05:33:58;;;;;;;12.65;9.73;;;;;;;24.22;51.57;101344.22;4965495;28;20455;-65
2022/08/19 05:36:28;;;;;;;11.50;9.65;;;;;;;24.21;51.71;101355.84;4965284;28;20046;-65
2022/08/19 05:38:55;;;;;;;11.77;9.25;;;;;;;24.22;51.66;101360.19;4965380;28;20227;-67
2022/08/19 05:41:26;;;;;;;10.48;9.38;;;;;;;24.21;51.76;101359.38;4973511;28;20031;-66
2022/08/19 05:43:52;;;;;;;11.88;9.93;;;;;;;24.23;51.88;101359.22;4964870;28;20062;-64
2022/08/19 05:46:19;;;;;;;12.68;11.15;;;;;;;24.26;51.99;101353.59;4979579;28;20089;-65
2022/08/19 05:48:45;;;;;;;12.85;11.00;;;;;;;24.26;51.72;101351.75;4977441;28;20030;-65
2022/08/19 05:51:10;;;;;;;12.73;10.63;;;;;;;24.26;51.90;101358.91;4981932;28;20096;-65
2022/08/19 05:53:37;;;;;;;12.65;10.77;;;;;;;24.24;51.75;101356.41;4984128;28;20045;-65
2022/08/19 05:56:11;;;;;;;25.42;22.67;;;;;;;24.29;51.71;101363.91;4984116;28;20058;-72
2022/08/19 05:58:37;;;;;;;23.75;19.65;;;;;;;24.07;51.85;101360.72;4982857;28;20035;-67
2022/08/19 06:01:09;;;;;;;15.95;13.00;;;;;;;23.94;52.85;101346.97;4978072;28;20039;-69
2022/08/19 06:03:37;;;;;;;15.43;10.73;;;;;;;23.93;53.11;101342.63;4974346;28;20478;-69
2022/08/19 06:06:02;;;;;;;12.40;10.70;;;;;;;24.01;53.34;101341.88;4978588;28;20101;-68
2022/08/19 06:08:28;;;;;;;12.43;10.05;;;;;;;24.01;53.06;101348.03;4983489;28;20861;-68
2022/08/19 06:10:54;;;;;;;12.32;10.90;;;;;;;24.05;53.03;101345.88;4968402;28;20054;-67
2022/08/19 06:13:19;;;;;;;12.77;10.43;;;;;;;24.05;53.37;101330.78;4971867;28;20034;-68
2022/08/19 06:15:46;;;;;;;12.35;9.85;;;;;;;24.05;53.06;101335.22;4969256;28;20043;-67
2022/08/19 06:18:12;;;;;;;14.13;10.00;;;;;;;24.12;53.00;101338.16;4966643;28;20482;-68
2022/08/19 06:20:37;;;;;;;20.30;15.35;;;;;;;24.12;52.72;101335.50;4983809;28;20117;-68
2022/08/19 06:23:03;;;;;;;15.63;13.07;;;;;;;24.06;52.94;101331.59;4983561;28;20034;-68
2022/08/19 06:25:28;;;;;;;17.20;11.48;;;;;;;24.09;53.08;101334.78;4969628;28;20284;-68
2022/08/19 06:27:53;;;;;;;12.43;10.07;;;;;;;24.14;53.25;101339.66;4979963;28;20438;-67
2022/08/19 06:30:18;;;;;;;11.80;9.80;;;;;;;24.18;53.14;101338.38;4968957;28;20039;-70
2022/08/19 06:32:44;;;;;;;11.65;9.57;;;;;;;24.18;53.06;101330.38;4981632;28;20264;-67
2022/08/19 06:35:10;;;;;;;13.40;9.35;;;;;;;24.26;53.29;101335.78;4964788;28;20037;-67
2022/08/19 06:37:36;;;;;;;12.85;10.07;;;;;;;24.30;53.12;101327.47;4982459;28;20028;-65
2022/08/19 06:40:03;;;;;;;12.63;9.48;;;;;;;24.39;53.00;101332.72;4968381;28;20126;-67
2022/08/19 06:42:29;;;;;;;10.63;8.27;;;;;;;24.41;53.19;101327.22;4983231;28;20348;-68
2022/08/19 06:44:54;;;;;;;10.57;8.50;;;;;;;24.39;52.68;101331.88;4983610;28;20036;-68
2022/08/19 06:47:21;;;;;;;12.40;8.70;;;;;;;24.42;53.05;101329.75;4983443;28;20085;-69
2022/08/19 06:49:46;;;;;;;11.23;8.32;;;;;;;24.47;52.82;101341.75;4980609;28;20038;-67
2022/08/19 06:52:12;;;;;;;10.98;8.55;;;;;;;24.49;53.01;101334.44;4969859;28;20046;-65
2022/08/19 06:54:39;;;;;;;12.15;9.65;;;;;;;24.55;53.03;101345.31;4970081;28;20070;-64
2022/08/19 06:57:06;;;;;;;12.25;8.25;;;;;;;24.54;52.78;101335.63;4977887;28;20038;-63
2022/08/19 06:59:32;;;;;;;13.18;9.13;;;;;;;24.57;52.95;101335.38;4963885;28;20066;-65
2022/08/19 07:02:00;;;;;;;16.85;12.30;;;;;;;24.58;52.83;101337.06;4964264;28;20037;-65
2022/08/19 07:04:30;;;;;;;15.00;11.70;;;;;;;24.56;53.10;101347.03;4968043;28;20049;-65
2022/08/19 07:07:08;;;;;;;12.20;9.07;;;;;;;24.55;53.49;101337.31;4977651;28;20030;-64
2022/08/19 07:09:36;;;;;;;11.75;8.32;;;;;;;24.57;53.33;101332.69;4967151;28;20035;-67
2022/08/19 07:12:04;;;;;;;11.27;8.20;;;;;;;24.61;53.42;101326.06;4963460;28;20030;-65
2022/08/19 07:14:29;;;;;;;10.07;7.88;;;;;;;24.71;53.19;101341.13;4979472;28;20153;-66
2022/08/19 07:16:56;;;;;;;15.77;8.82;;;;;;;24.73;53.16;101342.63;4963626;28;20121;-65
2022/08/19 07:19:25;;;;;;;11.13;8.57;;;;;;;24.77;53.46;101345.84;4963366;28;20259;-68
2022/08/19 07:21:52;;;;;;;10.00;7.95;;;;;;;24.80;52.78;101342.84;4962935;28;20488;-64
2022/08/19 07:24:18;;;;;;;12.18;7.15;;;;;;;24.85;53.35;101353.88;4975917;28;20058;-64
2022/08/19 07:26:44;;;;;;;12.10;8.23;;;;;;;24.88;53.71;101355.38;4974946;28;20509;-65
2022/08/19 07:29:11;;;;;;;10.85;7.25;;;;;;;24.90;54.03;101356.91;4977175;28;20078;-64
2022/08/19 07:31:37;;;;;;;13.07;7.70;;;;;;;24.90;54.25;101362.25;4972282;28;20030;-68
2022/08/19 07:34:10;;;;;;;10.40;6.65;;;;;;;24.94;54.16;101360.09;4969678;28;20035;-66
2022/08/19 07:36:37;;;;;;;10.90;7.53;;;;;;;25.01;54.43;101362.97;4970315;28;20045;-69
2022/08/19 07:39:07;;;;;;;12.18;8.32;;;;;;;24.98;54.28;101358.78;4972385;28;20565;-67
2022/08/19 07:41:36;;;;;;;12.35;7.25;;;;;;;24.95;54.11;101359.09;4968644;28;20038;-67
2022/08/19 07:44:03;;;;;;;10.20;6.95;;;;;;;24.98;54.26;101367.63;4973677;28;20034;-64
2022/08/19 07:46:31;;;;;;;9.77;7.20;;;;;;;24.97;53.85;101365.09;4981958;28;20352;-69
2022/08/19 07:48:57;;;;;;;11.15;7.65;;;;;;;25.02;54.29;101378.81;4972598;28;20041;-65
2022/08/19 07:51:22;;;;;;;8.82;7.10;;;;;;;25.01;54.05;101378.94;4962970;28;20034;-67
2022/08/19 07:53:50;;;;;;;9.88;7.47;;;;;;;25.00;54.43;101378.13;4966826;28;20026;-65
2022/08/19 07:56:16;;;;;;;9.98;7.47;;;;;;;25.04;53.87;101389.31;4982517;28;20030;-67
2022/08/19 07:58:45;;;;;;;11.43;8.02;;;;;;;25.06;54.15;101395.34;4975862;28;20054;-68
2022/08/19 08:01:13;;;;;;;10.18;7.95;;;;;;;24.99;54.19;101384.44;4977626;28;20022;-66
2022/08/19 08:09:11;;;;;;;13.30;9.23;;;;;;;24.97;54.17;101384.59;4975469;28;20044;-66
2022/08/19 08:11:39;;;;;;;13.85;9.07;;;;;;;25.00;54.34;101394.13;4976011;28;20062;-66
2022/08/19 08:14:04;;;;;;;10.48;8.68;;;;;;;24.95;54.02;101388.44;4967597;28;20046;-65
2022/08/19 08:16:34;;;;;;;11.00;9.00;;;;;;;24.95;54.06;101388.44;4985137;28;20030;-65
2022/08/19 08:19:00;;;;;;;11.93;10.05;;;;;;;24.94;54.01;101390.28;4987118;28;20122;-66
2022/08/19 08:21:25;;;;;;;11.35;9.55;;;;;;;24.95;54.47;101394.59;4974810;28;20138;-65
2022/08/19 08:23:51;;;;;;;12.55;10.10;;;;;;;24.99;54.00;101403.09;4975696;28;20046;-65
2022/08/19 08:26:17;;;;;;;11.32;9.43;;;;;;;24.95;53.65;101405.25;4965136;28;20038;-64
2022/08/19 08:28:42;;;;;;;14.20;10.25;;;;;;;24.92;53.96;101402.91;4974755;28;20034;-65
2022/08/19 08:31:08;;;;;;;11.10;9.90;;;;;;;24.95;53.98;101415.09;4964873;28;20034;-64
2022/08/19 08:33:33;;;;;;;11.32;10.13;;;;;;;24.97;53.85;101418.44;4962871;28;20271;-68
2022/08/19 08:35:59;;;;;;;13.38;10.85;;;;;;;24.94;53.94;101419.59;4965760;28;20026;-66
2022/08/19 08:38:24;;;;;;;13.32;10.90;;;;;;;24.95;54.38;101425.75;4973435;28;20041;-67
2022/08/19 08:41:27;;;;;;;12.10;10.73;;;;;;;24.94;53.93;101413.41;4977738;28;20483;-66
2022/08/19 08:43:53;;;;;;;13.48;10.23;;;;;;;24.97;53.74;101423.75;4964813;28;20074;-65
2022/08/19 08:46:45;;;;;;;13.30;11.00;;;;;;;25.03;53.96;101431.16;4970581;28;20439;-66
2022/08/19 08:49:16;;;;;;;25.75;21.00;;;;;;;24.99;53.66;101438.63;4981076;28;20550;-71
2022/08/19 08:51:47;;;;;;;27.15;19.80;;;;;;;24.78;54.72;101435.44;4981675;28;20442;-66
2022/08/19 08:54:17;;;;;;;26.20;21.30;;;;;;;24.47;54.73;101430.50;4980978;28;20122;-71
2022/08/19 08:56:44;;;;;;;26.75;21.45;;;;;;;24.24;55.70;101428.31;4978659;28;20386;-67
2022/08/19 08:59:23;;;;;;;25.40;20.05;;;;;;;23.98;56.69;101428.19;4966306;28;20121;-69
2022/08/19 09:01:48;;;;;;;26.95;21.67;;;;;;;23.77;57.07;101423.09;4966374;28;20066;-68
2022/08/19 09:04:14;;;;;;;27.58;22.00;;;;;;;23.61;57.18;101423.72;4970922;28;20070;-69
2022/08/19 09:07:09;;;;;;;25.27;21.58;;;;;;;23.46;57.83;101420.69;4972066;28;20078;-71
2022/08/19 09:09:39;;;;;;;27.75;22.50;;;;;;;23.33;58.73;101428.19;4971975;28;20129;-68
2022/08/19 09:12:31;;;;;;;29.50;24.45;;;;;;;23.24;59.22;101418.41;4982912;28;20153;-67
2022/08/19 09:15:01;;;;;;;27.90;23.80;;;;;;;23.14;59.75;101413.13;4978744;28;20030;-66
2022/08/19 09:17:33;;;;;;;27.08;23.15;;;;;;;23.10;59.38;101423.22;4979215;28;20871;-68
2022/08/19 09:19:58;;;;;;;30.58;23.70;;;;;;;23.10;59.71;101427.69;4965912;28;20031;-65
2022/08/19 09:22:26;;;;;;;32.17;24.33;;;;;;;23.06;59.56;101424.44;4981621;28;20115;-67
2022/08/19 09:24:53;;;;;;;30.42;23.17;;;;;;;23.01;60.02;101422.19;4965266;28;20469;-66
2022/08/19 09:27:23;;;;;;;29.45;24.77;;;;;;;22.98;59.46;101440.25;4983868;28;20113;-68
2022/08/19 09:29:49;;;;;;;26.98;22.63;;;;;;;22.94;59.70;101437.06;4968090;28;20034;-66
2022/08/19 09:32:17;;;;;;;25.88;21.85;;;;;;;22.88;60.22;101440.28;4984017;28;20524;-67
2022/08/19 09:34:43;;;;;;;26.17;22.55;;;;;;;22.72;60.78;101421.44;4978876;28;20031;-70
2022/08/19 09:37:08;;;;;;;27.10;23.50;;;;;;;22.79;60.43;101436.63;4982140;28;20061;-71
2022/08/19 09:39:33;;;;;;;24.85;22.13;;;;;;;22.76;60.14;101436.09;4972201;28;20042;-69
2022/08/19 09:41:59;;;;;;;28.27;23.47;;;;;;;22.71;61.00;101433.03;4977214;28;20053;-68
2022/08/19 09:44:24;;;;;;;25.53;21.57;;;;;;;22.70;60.92;101434.84;4984545;28;20268;-68
2022/08/19 09:46:50;;;;;;;32.35;23.45;;;;;;;22.69;60.68;101435.00;4984336;28;20470;-67
2022/08/19 09:49:17;;;;;;;29.90;24.08;;;;;;;22.69;60.61;101435.00;4975209;28;20142;-67
2022/08/19 09:51:43;;;;;;;29.33;22.80;;;;;;;22.72;61.39;101438.19;4965013;28;20026;-70
2022/08/19 09:54:08;;;;;;;24.48;20.92;;;;;;;22.72;61.33;101443.50;4977747;28;20026;-68
2022/08/19 09:56:33;;;;;;;28.65;22.48;;;;;;;22.71;60.61;101436.50;4970037;28;20035;-69
2022/08/19 09:59:00;;;;;;;25.45;21.13;;;;;;;22.71;60.41;101443.66;4983291;28;20062;-69
2022/08/19 10:01:31;;;;;;;23.98;20.33;;;;;;;22.74;60.79;101443.38;4969043;28;20037;-69
2022/08/19 10:03:59;;;;;;;24.20;19.23;;;;;;;22.57;61.22;101423.66;4982252;28;20052;-70
2022/08/19 10:06:33;;;;;;;25.27;20.83;;;;;;;22.70;61.12;101445.47;4969299;28;20022;-72
2022/08/19 10:08:59;;;;;;;24.70;18.77;;;;;;;22.78;61.72;101455.38;4966662;28;20377;-70
2022/08/19 10:11:24;;;;;;;22.52;17.98;;;;;;;22.79;60.67;101447.25;4974522;28;20027;-70
2022/08/19 10:13:50;;;;;;;27.25;21.52;;;;;;;22.89;61.35;101455.25;4978277;28;20100;-66
2022/08/19 10:16:21;;;;;;;25.08;19.98;;;;;;;22.94;61.01;101454.81;4980761;28;20570;-67
2022/08/19 10:18:46;;;;;;;27.17;21.15;;;;;;;22.94;61.48;101444.16;4963873;28;20042;-65
2022/08/19 10:21:15;;;;;;;26.45;20.20;;;;;;;22.98;60.62;101445.56;4971578;28;20397;-68
2022/08/19 10:23:46;;;;;;;26.90;21.60;;;;;;;22.98;60.60;101440.25;4979370;28;20057;-68
2022/08/19 10:26:26;;;;;;;28.02;22.38;;;;;;;22.97;60.63;101434.13;4976449;28;20097;-67
2022/08/19 10:28:52;;;;;;;30.23;22.98;;;;;;;22.99;60.63;101437.47;4969129;28;21685;-67
2022/08/19 10:31:24;;;;;;;29.17;22.52;;;;;;;23.04;60.07;101441.53;4969518;28;20030;-70
2022/08/19 10:33:50;;;;;;;27.73;21.90;;;;;;;23.03;60.54;101445.16;4975198;28;20114;-69
2022/08/19 10:36:18;;;;;;;26.63;21.48;;;;;;;23.05;60.80;101440.53;4976127;28;20041;-70
2022/08/19 10:38:46;;;;;;;29.95;22.33;;;;;;;23.04;60.58;101442.34;4966689;28;20031;-69
2022/08/19 10:41:14;;;;;;;27.83;22.48;;;;;;;23.04;59.80;101438.88;4989565;28;20031;-68
2022/08/19 10:43:41;;;;;;;24.33;21.48;;;;;;;23.06;59.73;101443.03;4980248;28;20535;-69
2022/08/19 10:46:09;;;;;;;24.42;20.92;;;;;;;23.05;61.02;101428.09;4983240;28;20068;-68
2022/08/19 10:48:35;;;;;;;26.77;20.50;;;;;;;23.09;60.72;101437.47;4974655;28;20040;-69
2022/08/19 10:53:45;;;;;;;26.63;20.65;;;;;;;23.13;60.46;101422.06;4968918;28;20057;-68
2022/08/19 10:58:57;;;;;;;23.48;18.30;;;;;;;23.22;60.01;101423.03;4978933;28;20502;-64
2022/08/19 11:01:22;;;;;;;21.45;18.02;;;;;;;23.30;59.87;101421.31;4972045;28;20065;-65
2022/08/19 11:03:47;;;;;;;22.08;19.10;;;;;;;23.42;59.27;101427.31;4983329;28;20049;-62
2022/08/19 11:06:13;;;;;;;22.45;20.05;;;;;;;23.51;58.87;101428.25;4983099;28;20121;-64
2022/08/19 11:08:38;;;;;;;22.75;20.30;;;;;;;23.63;59.12;101432.41;4982090;28;20030;-63
2022/08/19 11:11:05;;;;;;;21.50;19.25;;;;;;;23.77;58.49;101425.75;4966215;28;20389;-63
2022/08/19 11:13:34;;;;;;;21.35;19.00;;;;;;;23.81;58.12;101424.47;4970890;28;20604;-61
2022/08/19 11:16:07;;;;;;;23.40;18.92;;;;;;;23.85;58.16;101417.06;4968021;28;20451;-61
2022/08/19 11:18:42;;;;;;;20.17;17.95;;;;;;;23.87;58.36;101417.75;4963652;28;20039;-63
2022/08/19 11:21:30;;;;;;;21.15;17.92;;;;;;;23.96;58.01;101423.97;4962232;28;20049;-70
2022/08/19 11:23:58;;;;;;;19.75;17.08;;;;;;;24.05;58.45;101423.09;4970867;28;20129;-70
2022/08/19 11:26:24;;;;;;;21.35;18.30;;;;;;;24.13;57.79;101425.84;4977618;28;20189;-71
2022/08/19 11:28:56;;;;;;;21.15;18.08;;;;;;;24.29;57.76;101427.81;4977153;28;20038;-70
2022/08/19 11:31:25;;;;;;;20.02;17.55;;;;;;;24.35;57.26;101413.91;4971232;28;20030;-70
2022/08/19 11:33:51;;;;;;;21.27;18.02;;;;;;;24.46;56.95;101410.19;4967470;28;20049;-73
2022/08/19 11:36:17;;;;;;;21.70;17.63;;;;;;;24.58;56.59;101413.50;4976569;28;20117;-72
2022/08/19 11:38:44;;;;;;;20.50;16.75;;;;;;;24.64;56.43;101407.53;4970129;28;20168;-70
2022/08/19 11:41:09;;;;;;;21.52;17.55;;;;;;;24.73;56.29;101406.59;4968138;28;20149;-72